sensor_id;sensor_type;location;lat;lon;timestamp;P1;durP1;ratioP1;P2;durP2;ratioP2
78871;SDS011;68247;43.514;1.502;2023-02-28T00:01:04;5.80;;;3.80;;
78871;SDS011;68247;43.514;1.502;2023-02-28T00:03:29;5.70;;;3.63;;
78871;SDS011;68247;43.514;1.502;2023-02-28T00:05:55;8.27;;;4.80;;
78871;SDS011;68247;43.514;1.502;2023-02-28T00:08:20;7.88;;;4.05;;
78871;SDS011;68247;43.514;1.502;2023-02-28T00:10:46;6.83;;;4.27;;
78871;SDS011;68247;43.514;1.502;2023-02-28T00:13:11;7.27;;;3.80;;
78871;SDS011;68247;43.514;1.502;2023-02-28T00:15:37;6.93;;;3.70;;
78871;SDS011;68247;43.514;1.502;2023-02-28T00:18:02;6.73;;;4.60;;
78871;SDS011;68247;43.514;1.502;2023-02-28T00:20:28;6.65;;;3.92;;
78871;SDS011;68247;43.514;1.502;2023-02-28T00:22:54;6.20;;;3.95;;
78871;SDS011;68247;43.514;1.502;2023-02-28T00:25:21;7.83;;;4.70;;
78871;SDS011;68247;43.514;1.502;2023-02-28T00:27:47;6.68;;;4.00;;
78871;SDS011;68247;43.514;1.502;2023-02-28T00:30:14;8.00;;;4.23;;
78871;SDS011;68247;43.514;1.502;2023-02-28T00:32:41;5.72;;;3.70;;
78871;SDS011;68247;43.514;1.502;2023-02-28T00:35:07;6.60;;;4.40;;
78871;SDS011;68247;43.514;1.502;2023-02-28T00:37:33;4.90;;;3.40;;
78871;SDS011;68247;43.514;1.502;2023-02-28T00:39:59;6.70;;;4.25;;
78871;SDS011;68247;43.514;1.502;2023-02-28T00:42:24;6.90;;;4.23;;
78871;SDS011;68247;43.514;1.502;2023-02-28T00:44:50;7.13;;;3.67;;
78871;SDS011;68247;43.514;1.502;2023-02-28T00:47:15;7.53;;;3.70;;
78871;SDS011;68247;43.514;1.502;2023-02-28T00:49:41;7.07;;;4.47;;
78871;SDS011;68247;43.514;1.502;2023-02-28T00:52:06;7.30;;;3.90;;
78871;SDS011;68247;43.514;1.502;2023-02-28T00:54:32;7.13;;;4.00;;
78871;SDS011;68247;43.514;1.502;2023-02-28T00:56:58;7.77;;;5.10;;
78871;SDS011;68247;43.514;1.502;2023-02-28T00:59:23;7.25;;;4.07;;
78871;SDS011;68247;43.514;1.502;2023-02-28T01:01:49;6.90;;;4.27;;
78871;SDS011;68247;43.514;1.502;2023-02-28T01:04:14;7.97;;;4.47;;
78871;SDS011;68247;43.514;1.502;2023-02-28T01:06:40;8.33;;;4.70;;
78871;SDS011;68247;43.514;1.502;2023-02-28T01:09:06;7.75;;;4.32;;
78871;SDS011;68247;43.514;1.502;2023-02-28T01:11:33;9.00;;;4.78;;
78871;SDS011;68247;43.514;1.502;2023-02-28T01:13:59;6.60;;;4.10;;
78871;SDS011;68247;43.514;1.502;2023-02-28T01:16:24;8.13;;;4.90;;
78871;SDS011;68247;43.514;1.502;2023-02-28T01:18:50;6.70;;;4.32;;
78871;SDS011;68247;43.514;1.502;2023-02-28T01:21:16;16.13;;;5.30;;
78871;SDS011;68247;43.514;1.502;2023-02-28T01:23:42;7.07;;;5.03;;
78871;SDS011;68247;43.514;1.502;2023-02-28T01:26:12;9.27;;;4.80;;
78871;SDS011;68247;43.514;1.502;2023-02-28T01:28:39;6.50;;;4.72;;
78871;SDS011;68247;43.514;1.502;2023-02-28T01:31:05;9.27;;;4.88;;
78871;SDS011;68247;43.514;1.502;2023-02-28T01:33:31;6.68;;;4.38;;
78871;SDS011;68247;43.514;1.502;2023-02-28T01:35:57;8.17;;;4.83;;
78871;SDS011;68247;43.514;1.502;2023-02-28T01:38:24;7.20;;;4.40;;
78871;SDS011;68247;43.514;1.502;2023-02-28T01:40:49;8.70;;;4.10;;
78871;SDS011;68247;43.514;1.502;2023-02-28T01:43:19;7.75;;;4.70;;
78871;SDS011;68247;43.514;1.502;2023-02-28T01:45:50;7.18;;;4.72;;
78871;SDS011;68247;43.514;1.502;2023-02-28T01:48:17;7.75;;;4.90;;
78871;SDS011;68247;43.514;1.502;2023-02-28T01:50:44;7.72;;;4.57;;
78871;SDS011;68247;43.514;1.502;2023-02-28T01:53:13;7.63;;;5.20;;
78871;SDS011;68247;43.514;1.502;2023-02-28T01:55:41;10.60;;;5.25;;
78871;SDS011;68247;43.514;1.502;2023-02-28T01:58:08;7.78;;;4.57;;
78871;SDS011;68247;43.514;1.502;2023-02-28T02:00:34;6.97;;;4.53;;
78871;SDS011;68247;43.514;1.502;2023-02-28T02:03:01;7.70;;;4.73;;
78871;SDS011;68247;43.514;1.502;2023-02-28T02:05:32;8.73;;;5.20;;
78871;SDS011;68247;43.514;1.502;2023-02-28T02:08:03;8.27;;;4.43;;
78871;SDS011;68247;43.514;1.502;2023-02-28T02:10:40;6.80;;;4.60;;
78871;SDS011;68247;43.514;1.502;2023-02-28T02:18:43;9.32;;;5.65;;
78871;SDS011;68247;43.514;1.502;2023-02-28T02:46:25;7.47;;;4.82;;
78871;SDS011;68247;43.514;1.502;2023-02-28T02:48:54;10.23;;;4.45;;
78871;SDS011;68247;43.514;1.502;2023-02-28T02:51:21;7.45;;;4.85;;
78871;SDS011;68247;43.514;1.502;2023-02-28T02:53:51;7.83;;;4.23;;
78871;SDS011;68247;43.514;1.502;2023-02-28T02:56:21;7.70;;;4.90;;
78871;SDS011;68247;43.514;1.502;2023-02-28T02:58:49;7.28;;;4.82;;
78871;SDS011;68247;43.514;1.502;2023-02-28T03:01:19;8.63;;;4.82;;
78871;SDS011;68247;43.514;1.502;2023-02-28T03:03:54;8.40;;;4.85;;
78871;SDS011;68247;43.514;1.502;2023-02-28T03:15:59;7.22;;;4.82;;
78871;SDS011;68247;43.514;1.502;2023-02-28T03:21:40;7.80;;;4.90;;
78871;SDS011;68247;43.514;1.502;2023-02-28T03:24:19;7.53;;;4.60;;
78871;SDS011;68247;43.514;1.502;2023-02-28T03:26:54;8.88;;;4.57;;
78871;SDS011;68247;43.514;1.502;2023-02-28T03:31:58;8.10;;;4.47;;
78871;SDS011;68247;43.514;1.502;2023-02-28T03:34:33;9.10;;;5.40;;
78871;SDS011;68247;43.514;1.502;2023-02-28T03:37:02;7.40;;;4.22;;
78871;SDS011;68247;43.514;1.502;2023-02-28T03:39:39;8.15;;;5.10;;
78871;SDS011;68247;43.514;1.502;2023-02-28T03:42:13;8.13;;;4.75;;
78871;SDS011;68247;43.514;1.502;2023-02-28T03:45:03;11.13;;;5.15;;
78871;SDS011;68247;43.514;1.502;2023-02-28T03:47:37;7.23;;;4.20;;
78871;SDS011;68247;43.514;1.502;2023-02-28T03:50:16;8.18;;;5.22;;
78871;SDS011;68247;43.514;1.502;2023-02-28T03:52:51;8.73;;;4.40;;
78871;SDS011;68247;43.514;1.502;2023-02-28T03:55:25;9.80;;;5.22;;
78871;SDS011;68247;43.514;1.502;2023-02-28T03:57:58;7.00;;;4.37;;
78871;SDS011;68247;43.514;1.502;2023-02-28T04:00:46;6.13;;;4.25;;
78871;SDS011;68247;43.514;1.502;2023-02-28T04:03:13;9.15;;;5.32;;
78871;SDS011;68247;43.514;1.502;2023-02-28T04:05:48;9.63;;;5.37;;
78871;SDS011;68247;43.514;1.502;2023-02-28T04:08:16;8.75;;;5.55;;
78871;SDS011;68247;43.514;1.502;2023-02-28T04:10:41;9.77;;;5.30;;
78871;SDS011;68247;43.514;1.502;2023-02-28T04:13:08;8.32;;;4.75;;
78871;SDS011;68247;43.514;1.502;2023-02-28T04:15:33;8.47;;;4.43;;
78871;SDS011;68247;43.514;1.502;2023-02-28T04:17:59;7.95;;;4.85;;
78871;SDS011;68247;43.514;1.502;2023-02-28T04:20:24;8.47;;;5.70;;
78871;SDS011;68247;43.514;1.502;2023-02-28T04:22:50;9.03;;;4.87;;
78871;SDS011;68247;43.514;1.502;2023-02-28T04:25:15;9.83;;;6.00;;
78871;SDS011;68247;43.514;1.502;2023-02-28T04:27:41;8.47;;;5.53;;
78871;SDS011;68247;43.514;1.502;2023-02-28T04:30:06;10.05;;;5.57;;
78871;SDS011;68247;43.514;1.502;2023-02-28T04:32:32;7.47;;;4.80;;
78871;SDS011;68247;43.514;1.502;2023-02-28T04:34:57;9.93;;;5.88;;
78871;SDS011;68247;43.514;1.502;2023-02-28T04:37:23;9.73;;;5.13;;
78871;SDS011;68247;43.514;1.502;2023-02-28T04:39:52;10.52;;;5.18;;
78871;SDS011;68247;43.514;1.502;2023-02-28T04:42:18;10.77;;;5.83;;
78871;SDS011;68247;43.514;1.502;2023-02-28T04:44:43;10.50;;;5.67;;
78871;SDS011;68247;43.514;1.502;2023-02-28T04:47:09;10.70;;;5.53;;
78871;SDS011;68247;43.514;1.502;2023-02-28T04:49:34;10.70;;;6.28;;
78871;SDS011;68247;43.514;1.502;2023-02-28T04:52:00;9.20;;;6.40;;
78871;SDS011;68247;43.514;1.502;2023-02-28T04:54:25;9.20;;;5.80;;
78871;SDS011;68247;43.514;1.502;2023-02-28T04:56:51;9.43;;;6.20;;
78871;SDS011;68247;43.514;1.502;2023-02-28T04:59:16;10.68;;;6.28;;
78871;SDS011;68247;43.514;1.502;2023-02-28T05:01:45;9.53;;;6.50;;
78871;SDS011;68247;43.514;1.502;2023-02-28T05:04:11;10.60;;;5.68;;
78871;SDS011;68247;43.514;1.502;2023-02-28T05:06:37;10.67;;;6.00;;
78871;SDS011;68247;43.514;1.502;2023-02-28T05:09:02;9.17;;;5.77;;
78871;SDS011;68247;43.514;1.502;2023-02-28T05:11:29;10.00;;;5.80;;
78871;SDS011;68247;43.514;1.502;2023-02-28T05:13:59;11.27;;;6.20;;
78871;SDS011;68247;43.514;1.502;2023-02-28T05:16:29;9.23;;;5.23;;
78871;SDS011;68247;43.514;1.502;2023-02-28T05:18:55;10.57;;;6.75;;
78871;SDS011;68247;43.514;1.502;2023-02-28T05:23:53;9.45;;;6.97;;
78871;SDS011;68247;43.514;1.502;2023-02-28T05:26:20;10.63;;;5.97;;
78871;SDS011;68247;43.514;1.502;2023-02-28T05:28:45;8.90;;;5.57;;
78871;SDS011;68247;43.514;1.502;2023-02-28T05:31:11;10.23;;;6.13;;
78871;SDS011;68247;43.514;1.502;2023-02-28T05:33:36;10.37;;;6.97;;
78871;SDS011;68247;43.514;1.502;2023-02-28T05:36:02;11.07;;;5.90;;
78871;SDS011;68247;43.514;1.502;2023-02-28T05:38:28;10.53;;;7.13;;
78871;SDS011;68247;43.514;1.502;2023-02-28T05:40:54;7.85;;;4.85;;
78871;SDS011;68247;43.514;1.502;2023-02-28T05:43:19;9.60;;;5.63;;
78871;SDS011;68247;43.514;1.502;2023-02-28T05:45:44;12.50;;;7.43;;
78871;SDS011;68247;43.514;1.502;2023-02-28T05:48:10;10.33;;;6.10;;
78871;SDS011;68247;43.514;1.502;2023-02-28T05:50:35;11.02;;;6.35;;
78871;SDS011;68247;43.514;1.502;2023-02-28T05:53:01;9.87;;;6.13;;
78871;SDS011;68247;43.514;1.502;2023-02-28T05:55:26;10.77;;;6.40;;
78871;SDS011;68247;43.514;1.502;2023-02-28T05:57:52;11.05;;;6.80;;
78871;SDS011;68247;43.514;1.502;2023-02-28T06:00:17;9.93;;;7.43;;
78871;SDS011;68247;43.514;1.502;2023-02-28T06:02:43;11.17;;;7.23;;
78871;SDS011;68247;43.514;1.502;2023-02-28T06:05:17;12.73;;;7.50;;
78871;SDS011;68247;43.514;1.502;2023-02-28T06:07:43;12.17;;;7.20;;
78871;SDS011;68247;43.514;1.502;2023-02-28T06:10:12;11.40;;;6.82;;
78871;SDS011;68247;43.514;1.502;2023-02-28T06:12:38;10.77;;;6.60;;
78871;SDS011;68247;43.514;1.502;2023-02-28T06:15:04;12.47;;;7.37;;
78871;SDS011;68247;43.514;1.502;2023-02-28T06:17:30;13.23;;;7.45;;
78871;SDS011;68247;43.514;1.502;2023-02-28T06:19:55;12.13;;;6.67;;
78871;SDS011;68247;43.514;1.502;2023-02-28T06:22:21;11.85;;;6.05;;
78871;SDS011;68247;43.514;1.502;2023-02-28T06:24:46;13.70;;;6.37;;
78871;SDS011;68247;43.514;1.502;2023-02-28T06:27:12;12.17;;;7.40;;
78871;SDS011;68247;43.514;1.502;2023-02-28T06:29:37;12.00;;;6.28;;
78871;SDS011;68247;43.514;1.502;2023-02-28T06:32:04;11.47;;;7.00;;
78871;SDS011;68247;43.514;1.502;2023-02-28T06:34:30;11.68;;;6.72;;
78871;SDS011;68247;43.514;1.502;2023-02-28T06:36:56;12.33;;;7.57;;
78871;SDS011;68247;43.514;1.502;2023-02-28T06:39:21;14.32;;;7.95;;
78871;SDS011;68247;43.514;1.502;2023-02-28T06:41:46;11.73;;;7.83;;
78871;SDS011;68247;43.514;1.502;2023-02-28T06:44:16;11.27;;;7.13;;
78871;SDS011;68247;43.514;1.502;2023-02-28T06:46:43;12.10;;;6.72;;
78871;SDS011;68247;43.514;1.502;2023-02-28T06:49:09;10.70;;;6.35;;
78871;SDS011;68247;43.514;1.502;2023-02-28T06:51:35;9.73;;;6.53;;
78871;SDS011;68247;43.514;1.502;2023-02-28T06:54:02;9.73;;;5.88;;
78871;SDS011;68247;43.514;1.502;2023-02-28T06:56:28;13.03;;;6.90;;
78871;SDS011;68247;43.514;1.502;2023-02-28T06:58:53;10.23;;;6.90;;
78871;SDS011;68247;43.514;1.502;2023-02-28T07:01:19;11.80;;;7.10;;
78871;SDS011;68247;43.514;1.502;2023-02-28T07:03:45;10.97;;;6.67;;
78871;SDS011;68247;43.514;1.502;2023-02-28T07:06:11;10.75;;;6.45;;
78871;SDS011;68247;43.514;1.502;2023-02-28T07:08:37;9.93;;;6.33;;
78871;SDS011;68247;43.514;1.502;2023-02-28T07:11:02;10.73;;;6.68;;
78871;SDS011;68247;43.514;1.502;2023-02-28T07:13:28;10.82;;;6.68;;
78871;SDS011;68247;43.514;1.502;2023-02-28T07:15:55;11.07;;;6.20;;
78871;SDS011;68247;43.514;1.502;2023-02-28T07:18:24;11.37;;;5.80;;
78871;SDS011;68247;43.514;1.502;2023-02-28T07:20:50;7.95;;;4.85;;
78871;SDS011;68247;43.514;1.502;2023-02-28T07:23:16;11.70;;;5.67;;
78871;SDS011;68247;43.514;1.502;2023-02-28T07:25:42;10.33;;;5.77;;
78871;SDS011;68247;43.514;1.502;2023-02-28T07:28:07;9.25;;;6.00;;
78871;SDS011;68247;43.514;1.502;2023-02-28T07:30:33;9.80;;;6.03;;
78871;SDS011;68247;43.514;1.502;2023-02-28T07:32:59;13.83;;;7.97;;
78871;SDS011;68247;43.514;1.502;2023-02-28T07:35:24;12.95;;;7.30;;
78871;SDS011;68247;43.514;1.502;2023-02-28T07:37:49;9.73;;;6.50;;
78871;SDS011;68247;43.514;1.502;2023-02-28T07:40:15;9.77;;;5.97;;
78871;SDS011;68247;43.514;1.502;2023-02-28T07:42:42;9.70;;;6.00;;
78871;SDS011;68247;43.514;1.502;2023-02-28T07:45:09;8.93;;;5.60;;
78871;SDS011;68247;43.514;1.502;2023-02-28T07:47:37;10.10;;;6.57;;
78871;SDS011;68247;43.514;1.502;2023-02-28T07:50:03;11.90;;;6.73;;
78871;SDS011;68247;43.514;1.502;2023-02-28T07:52:29;10.02;;;6.32;;
78871;SDS011;68247;43.514;1.502;2023-02-28T07:54:54;11.10;;;6.13;;
78871;SDS011;68247;43.514;1.502;2023-02-28T07:57:20;8.90;;;4.63;;
78871;SDS011;68247;43.514;1.502;2023-02-28T07:59:45;8.53;;;5.57;;
78871;SDS011;68247;43.514;1.502;2023-02-28T08:02:17;9.37;;;6.20;;
78871;SDS011;68247;43.514;1.502;2023-02-28T08:04:43;10.52;;;5.72;;
78871;SDS011;68247;43.514;1.502;2023-02-28T08:07:09;9.88;;;5.90;;
78871;SDS011;68247;43.514;1.502;2023-02-28T08:09:38;9.57;;;6.07;;
78871;SDS011;68247;43.514;1.502;2023-02-28T08:12:05;9.07;;;5.50;;
78871;SDS011;68247;43.514;1.502;2023-02-28T08:14:31;11.27;;;6.20;;
78871;SDS011;68247;43.514;1.502;2023-02-28T08:16:56;10.20;;;6.33;;
78871;SDS011;68247;43.514;1.502;2023-02-28T08:19:22;5.87;;;4.23;;
78871;SDS011;68247;43.514;1.502;2023-02-28T08:21:47;9.20;;;5.60;;
78871;SDS011;68247;43.514;1.502;2023-02-28T08:24:12;7.77;;;5.40;;
78871;SDS011;68247;43.514;1.502;2023-02-28T08:26:38;11.77;;;6.50;;
78871;SDS011;68247;43.514;1.502;2023-02-28T08:29:03;13.83;;;6.40;;
78871;SDS011;68247;43.514;1.502;2023-02-28T08:31:29;11.27;;;5.85;;
78871;SDS011;68247;43.514;1.502;2023-02-28T08:33:54;8.20;;;5.00;;
78871;SDS011;68247;43.514;1.502;2023-02-28T08:36:23;8.25;;;5.30;;
78871;SDS011;68247;43.514;1.502;2023-02-28T08:38:49;8.60;;;5.03;;
78871;SDS011;68247;43.514;1.502;2023-02-28T08:41:14;10.40;;;5.87;;
78871;SDS011;68247;43.514;1.502;2023-02-28T08:43:40;10.60;;;5.95;;
78871;SDS011;68247;43.514;1.502;2023-02-28T08:46:05;8.20;;;5.33;;
78871;SDS011;68247;43.514;1.502;2023-02-28T08:48:33;12.10;;;6.13;;
78871;SDS011;68247;43.514;1.502;2023-02-28T08:51:01;9.38;;;5.63;;
78871;SDS011;68247;43.514;1.502;2023-02-28T08:53:31;12.40;;;5.83;;
78871;SDS011;68247;43.514;1.502;2023-02-28T08:58:22;9.00;;;5.23;;
78871;SDS011;68247;43.514;1.502;2023-02-28T09:00:48;10.07;;;5.97;;
78871;SDS011;68247;43.514;1.502;2023-02-28T09:03:13;9.43;;;5.43;;
78871;SDS011;68247;43.514;1.502;2023-02-28T09:05:39;9.83;;;5.20;;
78871;SDS011;68247;43.514;1.502;2023-02-28T09:08:04;10.07;;;5.47;;
78871;SDS011;68247;43.514;1.502;2023-02-28T09:10:30;11.30;;;5.27;;
78871;SDS011;68247;43.514;1.502;2023-02-28T09:12:55;7.93;;;4.93;;
78871;SDS011;68247;43.514;1.502;2023-02-28T09:15:20;9.27;;;5.50;;
78871;SDS011;68247;43.514;1.502;2023-02-28T09:17:46;9.43;;;5.33;;
78871;SDS011;68247;43.514;1.502;2023-02-28T09:20:11;8.73;;;5.20;;
78871;SDS011;68247;43.514;1.502;2023-02-28T09:22:37;8.10;;;5.82;;
78871;SDS011;68247;43.514;1.502;2023-02-28T09:25:02;7.87;;;5.40;;
78871;SDS011;68247;43.514;1.502;2023-02-28T09:27:28;10.70;;;4.73;;
78871;SDS011;68247;43.514;1.502;2023-02-28T09:29:53;8.68;;;3.97;;
78871;SDS011;68247;43.514;1.502;2023-02-28T09:32:19;6.93;;;4.93;;
78871;SDS011;68247;43.514;1.502;2023-02-28T09:34:44;8.37;;;5.47;;
78871;SDS011;68247;43.514;1.502;2023-02-28T09:37:09;9.27;;;5.57;;
78871;SDS011;68247;43.514;1.502;2023-02-28T09:39:35;8.45;;;4.97;;
78871;SDS011;68247;43.514;1.502;2023-02-28T09:42:00;8.63;;;5.10;;
78871;SDS011;68247;43.514;1.502;2023-02-28T09:47:14;8.20;;;5.50;;
78871;SDS011;68247;43.514;1.502;2023-02-28T09:49:44;7.72;;;4.68;;
78871;SDS011;68247;43.514;1.502;2023-02-28T09:52:30;7.18;;;4.80;;
78871;SDS011;68247;43.514;1.502;2023-02-28T09:55:00;7.43;;;4.93;;
78871;SDS011;68247;43.514;1.502;2023-02-28T09:57:37;10.30;;;5.25;;
78871;SDS011;68247;43.514;1.502;2023-02-28T10:00:19;6.50;;;4.60;;
78871;SDS011;68247;43.514;1.502;2023-02-28T10:06:00;6.63;;;4.05;;
78871;SDS011;68247;43.514;1.502;2023-02-28T10:08:36;7.00;;;4.80;;
78871;SDS011;68247;43.514;1.502;2023-02-28T10:11:07;7.47;;;4.68;;
78871;SDS011;68247;43.514;1.502;2023-02-28T10:13:37;6.17;;;4.03;;
78871;SDS011;68247;43.514;1.502;2023-02-28T10:16:36;8.85;;;4.97;;
78871;SDS011;68247;43.514;1.502;2023-02-28T10:19:14;8.20;;;4.75;;
78871;SDS011;68247;43.514;1.502;2023-02-28T10:21:47;7.28;;;4.70;;
78871;SDS011;68247;43.514;1.502;2023-02-28T10:29:49;7.53;;;5.35;;
78871;SDS011;68247;43.514;1.502;2023-02-28T10:32:35;8.10;;;5.40;;
78871;SDS011;68247;43.514;1.502;2023-02-28T10:35:21;6.72;;;4.55;;
78871;SDS011;68247;43.514;1.502;2023-02-28T10:37:49;7.78;;;5.22;;
78871;SDS011;68247;43.514;1.502;2023-02-28T10:43:03;8.38;;;5.22;;
78871;SDS011;68247;43.514;1.502;2023-02-28T10:45:37;10.98;;;6.40;;
78871;SDS011;68247;43.514;1.502;2023-02-28T10:55:55;9.60;;;5.60;;
78871;SDS011;68247;43.514;1.502;2023-02-28T11:01:33;7.22;;;5.18;;
78871;SDS011;68247;43.514;1.502;2023-02-28T11:04:16;8.50;;;5.17;;
78871;SDS011;68247;43.514;1.502;2023-02-28T11:06:42;8.52;;;5.07;;
78871;SDS011;68247;43.514;1.502;2023-02-28T11:12:19;7.80;;;4.83;;
78871;SDS011;68247;43.514;1.502;2023-02-28T11:14:47;7.40;;;4.93;;
78871;SDS011;68247;43.514;1.502;2023-02-28T11:17:19;8.63;;;5.85;;
78871;SDS011;68247;43.514;1.502;2023-02-28T11:19:47;8.30;;;5.68;;
78871;SDS011;68247;43.514;1.502;2023-02-28T11:22:19;10.43;;;5.70;;
78871;SDS011;68247;43.514;1.502;2023-02-28T11:24:47;8.23;;;5.80;;
78871;SDS011;68247;43.514;1.502;2023-02-28T11:29:56;9.07;;;5.70;;
78871;SDS011;68247;43.514;1.502;2023-02-28T11:32:23;8.00;;;5.07;;
78871;SDS011;68247;43.514;1.502;2023-02-28T11:35:36;9.70;;;5.93;;
78871;SDS011;68247;43.514;1.502;2023-02-28T11:37:37;8.67;;;5.60;;
78871;SDS011;68247;43.514;1.502;2023-02-28T11:40:13;7.63;;;5.45;;
78871;SDS011;68247;43.514;1.502;2023-02-28T11:51:21;10.37;;;6.70;;
78871;SDS011;68247;43.514;1.502;2023-02-28T12:07:15;8.65;;;6.05;;
78871;SDS011;68247;43.514;1.502;2023-02-28T12:28:18;8.55;;;6.07;;
78871;SDS011;68247;43.514;1.502;2023-02-28T12:30:57;7.53;;;5.75;;
78871;SDS011;68247;43.514;1.502;2023-02-28T12:33:34;7.03;;;5.30;;
78871;SDS011;68247;43.514;1.502;2023-02-28T12:36:04;9.15;;;5.40;;
78871;SDS011;68247;43.514;1.502;2023-02-28T12:38:37;7.50;;;5.70;;
78871;SDS011;68247;43.514;1.502;2023-02-28T12:41:14;8.18;;;5.85;;
78871;SDS011;68247;43.514;1.502;2023-02-28T12:43:44;7.90;;;6.25;;
78871;SDS011;68247;43.514;1.502;2023-02-28T12:46:21;8.20;;;5.83;;
78871;SDS011;68247;43.514;1.502;2023-02-28T12:51:16;9.30;;;6.07;;
78871;SDS011;68247;43.514;1.502;2023-02-28T12:53:57;8.18;;;5.93;;
78871;SDS011;68247;43.514;1.502;2023-02-28T12:59:03;8.57;;;6.00;;
78871;SDS011;68247;43.514;1.502;2023-02-28T13:01:42;10.18;;;4.97;;
78871;SDS011;68247;43.514;1.502;2023-02-28T13:07:08;7.38;;;5.88;;
78871;SDS011;68247;43.514;1.502;2023-02-28T13:09:38;7.30;;;5.50;;
78871;SDS011;68247;43.514;1.502;2023-02-28T13:12:12;7.87;;;5.73;;
78871;SDS011;68247;43.514;1.502;2023-02-28T13:14:38;7.82;;;5.43;;
78871;SDS011;68247;43.514;1.502;2023-02-28T13:19:34;9.13;;;5.93;;
78871;SDS011;68247;43.514;1.502;2023-02-28T13:22:02;7.05;;;5.60;;
78871;SDS011;68247;43.514;1.502;2023-02-28T13:30:49;9.30;;;4.93;;
78871;SDS011;68247;43.514;1.502;2023-02-28T13:36:39;7.47;;;4.32;;
78871;SDS011;68247;43.514;1.502;2023-02-28T13:44:11;7.83;;;5.10;;
78871;SDS011;68247;43.514;1.502;2023-02-28T13:47:21;7.25;;;5.13;;
78871;SDS011;68247;43.514;1.502;2023-02-28T13:51:51;8.70;;;5.57;;
78871;SDS011;68247;43.514;1.502;2023-02-28T14:07:16;6.95;;;5.28;;
78871;SDS011;68247;43.514;1.502;2023-02-28T14:09:45;7.20;;;5.05;;
78871;SDS011;68247;43.514;1.502;2023-02-28T14:15:39;9.20;;;5.50;;
78871;SDS011;68247;43.514;1.502;2023-02-28T14:20:45;7.38;;;5.28;;
78871;SDS011;68247;43.514;1.502;2023-02-28T14:34:17;6.30;;;5.35;;
78871;SDS011;68247;43.514;1.502;2023-02-28T14:37:11;9.30;;;5.05;;
78871;SDS011;68247;43.514;1.502;2023-02-28T14:39:41;7.30;;;5.25;;
78871;SDS011;68247;43.514;1.502;2023-02-28T14:44:55;12.53;;;5.00;;
78871;SDS011;68247;43.514;1.502;2023-02-28T14:47:21;5.82;;;4.60;;
78871;SDS011;68247;43.514;1.502;2023-02-28T14:49:59;8.10;;;4.57;;
78871;SDS011;68247;43.514;1.502;2023-02-28T14:52:27;8.38;;;4.93;;
78871;SDS011;68247;43.514;1.502;2023-02-28T14:54:55;8.15;;;5.07;;
78871;SDS011;68247;43.514;1.502;2023-02-28T15:02:43;8.70;;;5.28;;
78871;SDS011;68247;43.514;1.502;2023-02-28T15:07:37;7.10;;;5.03;;
78871;SDS011;68247;43.514;1.502;2023-02-28T15:12:39;7.63;;;4.40;;
78871;SDS011;68247;43.514;1.502;2023-02-28T15:15:13;6.95;;;4.65;;
78871;SDS011;68247;43.514;1.502;2023-02-28T15:17:40;7.18;;;4.13;;
78871;SDS011;68247;43.514;1.502;2023-02-28T15:20:11;12.38;;;4.93;;
78871;SDS011;68247;43.514;1.502;2023-02-28T15:22:37;7.78;;;4.63;;
78871;SDS011;68247;43.514;1.502;2023-02-28T15:25:04;9.10;;;4.90;;
78871;SDS011;68247;43.514;1.502;2023-02-28T15:27:32;7.53;;;4.88;;
78871;SDS011;68247;43.514;1.502;2023-02-28T15:30:06;7.47;;;4.30;;
78871;SDS011;68247;43.514;1.502;2023-02-28T15:32:37;7.05;;;5.05;;
78871;SDS011;68247;43.514;1.502;2023-02-28T15:35:25;6.35;;;3.90;;
78871;SDS011;68247;43.514;1.502;2023-02-28T15:37:54;7.47;;;4.73;;
78871;SDS011;68247;43.514;1.502;2023-02-28T15:40:42;7.43;;;4.30;;
78871;SDS011;68247;43.514;1.502;2023-02-28T15:43:35;7.82;;;5.00;;
78871;SDS011;68247;43.514;1.502;2023-02-28T15:46:02;7.22;;;4.47;;
78871;SDS011;68247;43.514;1.502;2023-02-28T15:48:47;8.05;;;4.60;;
78871;SDS011;68247;43.514;1.502;2023-02-28T15:51:22;8.20;;;4.57;;
78871;SDS011;68247;43.514;1.502;2023-02-28T15:53:53;6.88;;;3.50;;
78871;SDS011;68247;43.514;1.502;2023-02-28T15:56:28;7.47;;;4.55;;
78871;SDS011;68247;43.514;1.502;2023-02-28T15:58:59;8.88;;;4.55;;
78871;SDS011;68247;43.514;1.502;2023-02-28T16:01:27;7.32;;;5.05;;
78871;SDS011;68247;43.514;1.502;2023-02-28T16:03:59;6.97;;;4.37;;
78871;SDS011;68247;43.514;1.502;2023-02-28T16:06:45;8.70;;;5.00;;
78871;SDS011;68247;43.514;1.502;2023-02-28T16:09:23;9.02;;;4.57;;
78871;SDS011;68247;43.514;1.502;2023-02-28T16:11:49;7.07;;;4.33;;
78871;SDS011;68247;43.514;1.502;2023-02-28T16:14:20;6.70;;;4.22;;
78871;SDS011;68247;43.514;1.502;2023-02-28T16:16:53;8.57;;;4.55;;
78871;SDS011;68247;43.514;1.502;2023-02-28T16:19:20;6.25;;;4.10;;
78871;SDS011;68247;43.514;1.502;2023-02-28T16:21:46;7.43;;;4.03;;
78871;SDS011;68247;43.514;1.502;2023-02-28T16:24:12;6.80;;;4.10;;
78871;SDS011;68247;43.514;1.502;2023-02-28T16:26:38;7.53;;;3.97;;
78871;SDS011;68247;43.514;1.502;2023-02-28T16:29:05;6.43;;;3.40;;
78871;SDS011;68247;43.514;1.502;2023-02-28T16:31:32;7.17;;;3.73;;
78871;SDS011;68247;43.514;1.502;2023-02-28T16:34:00;8.20;;;4.43;;
78871;SDS011;68247;43.514;1.502;2023-02-28T16:36:26;6.80;;;4.37;;
78871;SDS011;68247;43.514;1.502;2023-02-28T16:38:53;7.43;;;4.47;;
78871;SDS011;68247;43.514;1.502;2023-02-28T16:41:21;9.77;;;4.75;;
78871;SDS011;68247;43.514;1.502;2023-02-28T16:43:49;9.40;;;5.18;;
78871;SDS011;68247;43.514;1.502;2023-02-28T16:46:17;8.38;;;4.25;;
78871;SDS011;68247;43.514;1.502;2023-02-28T16:48:43;7.17;;;3.90;;
78871;SDS011;68247;43.514;1.502;2023-02-28T16:51:12;8.25;;;5.00;;
78871;SDS011;68247;43.514;1.502;2023-02-28T16:53:39;7.72;;;4.40;;
78871;SDS011;68247;43.514;1.502;2023-02-28T16:56:04;7.83;;;4.27;;
78871;SDS011;68247;43.514;1.502;2023-02-28T16:58:32;7.82;;;4.85;;
78871;SDS011;68247;43.514;1.502;2023-02-28T17:01:00;6.70;;;4.03;;
78871;SDS011;68247;43.514;1.502;2023-02-28T17:03:27;8.02;;;4.57;;
78871;SDS011;68247;43.514;1.502;2023-02-28T17:05:53;7.07;;;4.20;;
78871;SDS011;68247;43.514;1.502;2023-02-28T17:08:18;7.93;;;4.83;;
78871;SDS011;68247;43.514;1.502;2023-02-28T17:10:44;10.37;;;4.80;;
78871;SDS011;68247;43.514;1.502;2023-02-28T17:13:10;8.48;;;4.70;;
78871;SDS011;68247;43.514;1.502;2023-02-28T17:15:35;10.37;;;5.13;;
78871;SDS011;68247;43.514;1.502;2023-02-28T17:18:02;8.40;;;4.60;;
78871;SDS011;68247;43.514;1.502;2023-02-28T17:20:28;7.43;;;4.63;;
78871;SDS011;68247;43.514;1.502;2023-02-28T17:22:53;9.43;;;4.97;;
78871;SDS011;68247;43.514;1.502;2023-02-28T17:25:19;7.35;;;4.85;;
78871;SDS011;68247;43.514;1.502;2023-02-28T17:27:45;14.98;;;4.88;;
78871;SDS011;68247;43.514;1.502;2023-02-28T17:30:14;8.43;;;4.70;;
78871;SDS011;68247;43.514;1.502;2023-02-28T17:32:43;8.18;;;4.60;;
78871;SDS011;68247;43.514;1.502;2023-02-28T17:35:09;8.05;;;4.95;;
78871;SDS011;68247;43.514;1.502;2023-02-28T17:37:35;8.90;;;4.80;;
78871;SDS011;68247;43.514;1.502;2023-02-28T17:40:00;8.73;;;5.03;;
78871;SDS011;68247;43.514;1.502;2023-02-28T17:42:26;9.63;;;4.97;;
78871;SDS011;68247;43.514;1.502;2023-02-28T17:44:51;9.10;;;5.37;;
78871;SDS011;68247;43.514;1.502;2023-02-28T17:47:17;9.47;;;5.73;;
78871;SDS011;68247;43.514;1.502;2023-02-28T17:49:42;8.45;;;5.38;;
78871;SDS011;68247;43.514;1.502;2023-02-28T17:52:08;10.33;;;5.10;;
78871;SDS011;68247;43.514;1.502;2023-02-28T17:54:33;7.23;;;4.43;;
78871;SDS011;68247;43.514;1.502;2023-02-28T17:56:59;8.53;;;4.70;;
78871;SDS011;68247;43.514;1.502;2023-02-28T17:59:25;8.07;;;5.33;;
78871;SDS011;68247;43.514;1.502;2023-02-28T18:01:50;7.82;;;4.90;;
78871;SDS011;68247;43.514;1.502;2023-02-28T18:04:15;9.73;;;5.23;;
78871;SDS011;68247;43.514;1.502;2023-02-28T18:06:44;9.07;;;5.37;;